sensor_id;sensor_type;location;lat;lon;timestamp;temperature;humidity
19359;DHT22;9815;52.334;20.890;2023-01-08T00:00:27;5.30;99.90
19359;DHT22;9815;52.334;20.890;2023-01-08T00:02:55;5.20;99.90
19359;DHT22;9815;52.334;20.890;2023-01-08T00:05:24;5.30;99.90
19359;DHT22;9815;52.334;20.890;2023-01-08T00:07:52;5.30;99.90
19359;DHT22;9815;52.334;20.890;2023-01-08T00:10:20;5.20;99.90
19359;DHT22;9815;52.334;20.890;2023-01-08T00:12:48;5.20;99.90
19359;DHT22;9815;52.334;20.890;2023-01-08T00:15:16;5.20;99.90
19359;DHT22;9815;52.334;20.890;2023-01-08T00:17:44;5.20;99.90
19359;DHT22;9815;52.334;20.890;2023-01-08T00:20:12;5.20;99.90
19359;DHT22;9815;52.334;20.890;2023-01-08T00:22:41;5.10;99.90
19359;DHT22;9815;52.334;20.890;2023-01-08T00:25:09;5.10;99.90
19359;DHT22;9815;52.334;20.890;2023-01-08T00:27:37;5.10;99.90
19359;DHT22;9815;52.334;20.890;2023-01-08T00:30:06;5.10;99.90
19359;DHT22;9815;52.334;20.890;2023-01-08T00:32:34;5.10;99.90
19359;DHT22;9815;52.334;20.890;2023-01-08T00:35:03;5.10;99.90
19359;DHT22;9815;52.334;20.890;2023-01-08T00:37:32;5.10;99.90
19359;DHT22;9815;52.334;20.890;2023-01-08T00:40:01;5.10;99.90
19359;DHT22;9815;52.334;20.890;2023-01-08T00:42:29;5.00;99.90
19359;DHT22;9815;52.334;20.890;2023-01-08T00:44:57;5.10;99.90
19359;DHT22;9815;52.334;20.890;2023-01-08T00:47:25;5.00;99.90
19359;DHT22;9815;52.334;20.890;2023-01-08T00:49:53;4.90;99.90
19359;DHT22;9815;52.334;20.890;2023-01-08T00:52:20;4.90;99.90
19359;DHT22;9815;52.334;20.890;2023-01-08T00:54:48;5.00;99.90
19359;DHT22;9815;52.334;20.890;2023-01-08T00:57:18;4.90;99.90
19359;DHT22;9815;52.334;20.890;2023-01-08T00:59:46;5.00;99.90
19359;DHT22;9815;52.334;20.890;2023-01-08T01:02:14;4.90;99.90
19359;DHT22;9815;52.334;20.890;2023-01-08T01:04:42;4.90;99.90
19359;DHT22;9815;52.334;20.890;2023-01-08T01:07:10;4.90;99.90
19359;DHT22;9815;52.334;20.890;2023-01-08T01:09:38;4.80;99.90
19359;DHT22;9815;52.334;20.890;2023-01-08T01:12:06;4.70;99.90
19359;DHT22;9815;52.334;20.890;2023-01-08T01:14:36;4.70;99.90
19359;DHT22;9815;52.334;20.890;2023-01-08T01:17:04;4.60;99.90
19359;DHT22;9815;52.334;20.890;2023-01-08T01:19:32;4.60;99.90
19359;DHT22;9815;52.334;20.890;2023-01-08T01:22:00;4.60;99.90
19359;DHT22;9815;52.334;20.890;2023-01-08T01:24:28;4.60;99.90
19359;DHT22;9815;52.334;20.890;2023-01-08T01:26:56;4.60;99.90
19359;DHT22;9815;52.334;20.890;2023-01-08T01:29:24;4.60;99.90
19359;DHT22;9815;52.334;20.890;2023-01-08T01:31:57;4.50;99.90
19359;DHT22;9815;52.334;20.890;2023-01-08T01:34:25;4.40;99.90
19359;DHT22;9815;52.334;20.890;2023-01-08T01:36:53;4.40;99.90
19359;DHT22;9815;52.334;20.890;2023-01-08T01:39:22;4.40;99.90
19359;DHT22;9815;52.334;20.890;2023-01-08T01:41:50;4.40;99.90
19359;DHT22;9815;52.334;20.890;2023-01-08T01:44:37;4.40;99.90
19359;DHT22;9815;52.334;20.890;2023-01-08T01:47:12;4.40;99.90
19359;DHT22;9815;52.334;20.890;2023-01-08T01:49:46;4.40;99.90
19359;DHT22;9815;52.334;20.890;2023-01-08T01:52:16;4.30;99.90
19359;DHT22;9815;52.334;20.890;2023-01-08T01:54:46;4.30;99.90
19359;DHT22;9815;52.334;20.890;2023-01-08T01:57:15;4.30;99.90
19359;DHT22;9815;52.334;20.890;2023-01-08T01:59:43;4.20;99.90
19359;DHT22;9815;52.334;20.890;2023-01-08T02:02:13;4.20;99.90
19359;DHT22;9815;52.334;20.890;2023-01-08T02:04:42;4.20;99.90
19359;DHT22;9815;52.334;20.890;2023-01-08T02:07:14;4.10;99.90
19359;DHT22;9815;52.334;20.890;2023-01-08T02:09:47;4.10;99.90
19359;DHT22;9815;52.334;20.890;2023-01-08T02:12:19;4.10;99.90
19359;DHT22;9815;52.334;20.890;2023-01-08T02:14:59;4.10;99.90
19359;DHT22;9815;52.334;20.890;2023-01-08T02:17:35;4.00;99.90
19359;DHT22;9815;52.334;20.890;2023-01-08T02:20:09;4.00;99.90
19359;DHT22;9815;52.334;20.890;2023-01-08T02:22:48;3.90;99.90
19359;DHT22;9815;52.334;20.890;2023-01-08T02:25:28;4.00;99.90
19359;DHT22;9815;52.334;20.890;2023-01-08T02:27:59;4.00;99.90
19359;DHT22;9815;52.334;20.890;2023-01-08T02:30:29;4.00;99.90
19359;DHT22;9815;52.334;20.890;2023-01-08T02:32:57;4.00;99.90
19359;DHT22;9815;52.334;20.890;2023-01-08T02:35:33;4.00;99.90
19359;DHT22;9815;52.334;20.890;2023-01-08T02:38:03;4.10;99.90
19359;DHT22;9815;52.334;20.890;2023-01-08T02:40:36;4.10;99.90
19359;DHT22;9815;52.334;20.890;2023-01-08T02:43:11;4.10;99.90
19359;DHT22;9815;52.334;20.890;2023-01-08T02:45:45;4.20;99.90
19359;DHT22;9815;52.334;20.890;2023-01-08T02:48:18;4.20;99.90
19359;DHT22;9815;52.334;20.890;2023-01-08T02:50:51;4.20;99.90
19359;DHT22;9815;52.334;20.890;2023-01-08T02:53:23;4.20;99.90
19359;DHT22;9815;52.334;20.890;2023-01-08T02:55:56;4.30;99.90
19359;DHT22;9815;52.334;20.890;2023-01-08T02:58:29;4.30;99.90
19359;DHT22;9815;52.334;20.890;2023-01-08T03:00:59;4.30;99.90
19359;DHT22;9815;52.334;20.890;2023-01-08T03:03:29;4.30;99.90
19359;DHT22;9815;52.334;20.890;2023-01-08T03:06:00;4.30;99.90
19359;DHT22;9815;52.334;20.890;2023-01-08T03:08:30;4.20;99.90
19359;DHT22;9815;52.334;20.890;2023-01-08T03:11:03;4.20;99.90
19359;DHT22;9815;52.334;20.890;2023-01-08T03:13:36;4.20;99.90
19359;DHT22;9815;52.334;20.890;2023-01-08T03:16:09;4.10;99.90
19359;DHT22;9815;52.334;20.890;2023-01-08T03:18:43;4.10;99.90
19359;DHT22;9815;52.334;20.890;2023-01-08T03:21:12;4.10;99.90
19359;DHT22;9815;52.334;20.890;2023-01-08T03:23:43;4.10;99.90
19359;DHT22;9815;52.334;20.890;2023-01-08T03:26:12;4.00;99.90
19359;DHT22;9815;52.334;20.890;2023-01-08T03:28:45;4.10;99.90
19359;DHT22;9815;52.334;20.890;2023-01-08T03:31:15;4.00;99.90
19359;DHT22;9815;52.334;20.890;2023-01-08T03:33:45;3.90;99.90
19359;DHT22;9815;52.334;20.890;2023-01-08T03:36:16;3.90;99.90
19359;DHT22;9815;52.334;20.890;2023-01-08T03:38:48;3.80;99.90
19359;DHT22;9815;52.334;20.890;2023-01-08T03:41:20;3.90;99.90
19359;DHT22;9815;52.334;20.890;2023-01-08T03:43:50;3.80;99.90
19359;DHT22;9815;52.334;20.890;2023-01-08T03:46:21;3.80;99.90
19359;DHT22;9815;52.334;20.890;2023-01-08T03:48:50;3.80;99.90
19359;DHT22;9815;52.334;20.890;2023-01-08T03:51:18;3.80;99.90
19359;DHT22;9815;52.334;20.890;2023-01-08T03:53:47;3.80;99.90
19359;DHT22;9815;52.334;20.890;2023-01-08T03:56:16;3.70;99.90
19359;DHT22;9815;52.334;20.890;2023-01-08T03:58:44;3.80;99.90
19359;DHT22;9815;52.334;20.890;2023-01-08T04:01:13;3.80;99.90
19359;DHT22;9815;52.334;20.890;2023-01-08T04:03:41;3.80;99.90
19359;DHT22;9815;52.334;20.890;2023-01-08T04:06:09;3.80;99.90
19359;DHT22;9815;52.334;20.890;2023-01-08T04:08:37;3.70;99.90
19359;DHT22;9815;52.334;20.890;2023-01-08T04:11:05;3.80;99.90
19359;DHT22;9815;52.334;20.890;2023-01-08T04:13:33;3.80;99.90
19359;DHT22;9815;52.334;20.890;2023-01-08T04:16:01;3.80;99.90
19359;DHT22;9815;52.334;20.890;2023-01-08T04:18:31;3.80;99.90
19359;DHT22;9815;52.334;20.890;2023-01-08T04:20:59;3.80;99.90
19359;DHT22;9815;52.334;20.890;2023-01-08T04:23:27;3.70;99.90
19359;DHT22;9815;52.334;20.890;2023-01-08T04:25:55;3.70;99.90
19359;DHT22;9815;52.334;20.890;2023-01-08T04:28:23;3.80;99.90
19359;DHT22;9815;52.334;20.890;2023-01-08T04:30:51;3.80;99.90
19359;DHT22;9815;52.334;20.890;2023-01-08T04:33:19;3.80;99.90
19359;DHT22;9815;52.334;20.890;2023-01-08T04:35:48;3.70;99.90
19359;DHT22;9815;52.334;20.890;2023-01-08T04:38:16;3.80;99.90
19359;DHT22;9815;52.334;20.890;2023-01-08T04:40:44;3.80;99.90
19359;DHT22;9815;52.334;20.890;2023-01-08T04:43:12;3.80;99.90
19359;DHT22;9815;52.334;20.890;2023-01-08T04:45:40;3.80;99.90
19359;DHT22;9815;52.334;20.890;2023-01-08T04:48:08;3.80;99.90
19359;DHT22;9815;52.334;20.890;2023-01-08T04:50:36;3.70;99.90
19359;DHT22;9815;52.334;20.890;2023-01-08T04:53:05;3.80;99.90
19359;DHT22;9815;52.334;20.890;2023-01-08T04:55:33;3.70;99.90
19359;DHT22;9815;52.334;20.890;2023-01-08T04:58:05;3.80;99.90
19359;DHT22;9815;52.334;20.890;2023-01-08T05:00:33;3.80;99.90
19359;DHT22;9815;52.334;20.890;2023-01-08T05:03:01;3.80;99.90
19359;DHT22;9815;52.334;20.890;2023-01-08T05:05:29;3.70;99.90
19359;DHT22;9815;52.334;20.890;2023-01-08T05:07:57;3.70;99.90
19359;DHT22;9815;52.334;20.890;2023-01-08T05:10:27;3.80;99.90
19359;DHT22;9815;52.334;20.890;2023-01-08T05:12:57;3.80;99.90
19359;DHT22;9815;52.334;20.890;2023-01-08T05:15:25;3.70;99.90
19359;DHT22;9815;52.334;20.890;2023-01-08T05:17:57;3.80;99.90
19359;DHT22;9815;52.334;20.890;2023-01-08T05:20:26;3.80;99.90
19359;DHT22;9815;52.334;20.890;2023-01-08T05:22:54;3.80;99.90
19359;DHT22;9815;52.334;20.890;2023-01-08T05:25:22;3.80;99.90
19359;DHT22;9815;52.334;20.890;2023-01-08T05:27:52;3.70;99.90
19359;DHT22;9815;52.334;20.890;2023-01-08T05:30:20;3.80;99.90
19359;DHT22;9815;52.334;20.890;2023-01-08T05:32:48;3.80;99.90
19359;DHT22;9815;52.334;20.890;2023-01-08T05:35:16;3.80;99.90
19359;DHT22;9815;52.334;20.890;2023-01-08T05:37:44;3.80;99.90
19359;DHT22;9815;52.334;20.890;2023-01-08T05:40:12;3.70;99.90
19359;DHT22;9815;52.334;20.890;2023-01-08T05:42:40;3.80;99.90
19359;DHT22;9815;52.334;20.890;2023-01-08T05:45:10;3.80;99.90
19359;DHT22;9815;52.334;20.890;2023-01-08T05:47:38;3.70;99.90
19359;DHT22;9815;52.334;20.890;2023-01-08T05:50:06;3.80;99.90
19359;DHT22;9815;52.334;20.890;2023-01-08T05:52:34;3.70;99.90
19359;DHT22;9815;52.334;20.890;2023-01-08T05:55:03;3.80;99.90
19359;DHT22;9815;52.334;20.890;2023-01-08T05:57:31;3.80;99.90
19359;DHT22;9815;52.334;20.890;2023-01-08T05:59:59;3.80;99.90
19359;DHT22;9815;52.334;20.890;2023-01-08T06:02:38;3.70;99.90
19359;DHT22;9815;52.334;20.890;2023-01-08T06:05:06;3.80;99.90
19359;DHT22;9815;52.334;20.890;2023-01-08T06:07:34;3.70;99.90
19359;DHT22;9815;52.334;20.890;2023-01-08T06:10:03;3.80;99.90
19359;DHT22;9815;52.334;20.890;2023-01-08T06:12:31;3.70;99.90
19359;DHT22;9815;52.334;20.890;2023-01-08T06:14:59;3.70;99.90
19359;DHT22;9815;52.334;20.890;2023-01-08T06:17:27;3.80;99.90
19359;DHT22;9815;52.334;20.890;2023-01-08T06:19:56;3.70;99.90
19359;DHT22;9815;52.334;20.890;2023-01-08T06:22:24;3.70;99.90
19359;DHT22;9815;52.334;20.890;2023-01-08T06:24:53;3.70;99.90
19359;DHT22;9815;52.334;20.890;2023-01-08T06:27:21;3.70;99.90
19359;DHT22;9815;52.334;20.890;2023-01-08T06:29:49;3.60;99.90
19359;DHT22;9815;52.334;20.890;2023-01-08T06:32:17;3.70;99.90
19359;DHT22;9815;52.334;20.890;2023-01-08T06:34:45;3.60;99.90
19359;DHT22;9815;52.334;20.890;2023-01-08T06:37:14;3.60;99.90
19359;DHT22;9815;52.334;20.890;2023-01-08T06:39:42;3.60;99.90
19359;DHT22;9815;52.334;20.890;2023-01-08T06:42:10;3.60;99.90
19359;DHT22;9815;52.334;20.890;2023-01-08T06:44:38;3.60;99.90
19359;DHT22;9815;52.334;20.890;2023-01-08T06:47:06;3.70;99.90
19359;DHT22;9815;52.334;20.890;2023-01-08T06:49:34;3.60;99.90
19359;DHT22;9815;52.334;20.890;2023-01-08T06:52:02;3.70;99.90
19359;DHT22;9815;52.334;20.890;2023-01-08T06:54:31;3.60;99.90
19359;DHT22;9815;52.334;20.890;2023-01-08T06:56:59;3.60;99.90
19359;DHT22;9815;52.334;20.890;2023-01-08T06:59:27;3.60;99.90
19359;DHT22;9815;52.334;20.890;2023-01-08T07:01:55;3.60;99.90
19359;DHT22;9815;52.334;20.890;2023-01-08T07:04:24;3.60;99.90
19359;DHT22;9815;52.334;20.890;2023-01-08T07:06:52;3.60;99.90
19359;DHT22;9815;52.334;20.890;2023-01-08T07:09:20;3.70;99.90
19359;DHT22;9815;52.334;20.890;2023-01-08T07:11:49;3.70;99.90
19359;DHT22;9815;52.334;20.890;2023-01-08T07:14:17;3.70;99.90
19359;DHT22;9815;52.334;20.890;2023-01-08T07:16:45;3.80;99.90
19359;DHT22;9815;52.334;20.890;2023-01-08T07:19:13;3.70;99.90
19359;DHT22;9815;52.334;20.890;2023-01-08T07:21:41;3.70;99.90
19359;DHT22;9815;52.334;20.890;2023-01-08T07:24:09;3.70;99.90
19359;DHT22;9815;52.334;20.890;2023-01-08T07:26:37;3.70;99.90
19359;DHT22;9815;52.334;20.890;2023-01-08T07:29:07;3.70;99.90
19359;DHT22;9815;52.334;20.890;2023-01-08T07:31:35;3.70;99.90
19359;DHT22;9815;52.334;20.890;2023-01-08T07:34:03;3.70;99.90
19359;DHT22;9815;52.334;20.890;2023-01-08T07:36:31;3.70;99.90
19359;DHT22;9815;52.334;20.890;2023-01-08T07:39:00;3.70;99.90
19359;DHT22;9815;52.334;20.890;2023-01-08T07:41:28;3.70;99.90
19359;DHT22;9815;52.334;20.890;2023-01-08T07:43:56;3.70;99.90
19359;DHT22;9815;52.334;20.890;2023-01-08T07:46:25;3.70;99.90
19359;DHT22;9815;52.334;20.890;2023-01-08T07:48:54;3.80;99.90
19359;DHT22;9815;52.334;20.890;2023-01-08T07:51:23;3.80;99.90
19359;DHT22;9815;52.334;20.890;2023-01-08T07:53:50;3.80;99.90
19359;DHT22;9815;52.334;20.890;2023-01-08T07:56:18;3.80;99.90
19359;DHT22;9815;52.334;20.890;2023-01-08T07:58:46;3.80;99.90
19359;DHT22;9815;52.334;20.890;2023-01-08T08:01:14;3.80;99.90
19359;DHT22;9815;52.334;20.890;2023-01-08T08:03:44;3.80;99.90
19359;DHT22;9815;52.334;20.890;2023-01-08T08:06:12;3.80;99.90
19359;DHT22;9815;52.334;20.890;2023-01-08T08:08:40;3.90;99.90
19359;DHT22;9815;52.334;20.890;2023-01-08T08:11:08;3.80;99.90
19359;DHT22;9815;52.334;20.890;2023-01-08T08:13:37;3.80;99.90
19359;DHT22;9815;52.334;20.890;2023-01-08T08:16:08;3.80;99.90
19359;DHT22;9815;52.334;20.890;2023-01-08T08:18:36;3.80;99.90
19359;DHT22;9815;52.334;20.890;2023-01-08T08:21:05;3.80;99.90
19359;DHT22;9815;52.334;20.890;2023-01-08T08:23:33;3.80;99.90
19359;DHT22;9815;52.334;20.890;2023-01-08T08:26:03;3.90;99.90
19359;DHT22;9815;52.334;20.890;2023-01-08T08:28:31;3.80;99.90
19359;DHT22;9815;52.334;20.890;2023-01-08T08:30:59;3.80;99.90
19359;DHT22;9815;52.334;20.890;2023-01-08T08:33:27;3.90;99.90
19359;DHT22;9815;52.334;20.890;2023-01-08T08:35:55;3.90;99.90
19359;DHT22;9815;52.334;20.890;2023-01-08T08:38:24;3.90;99.90
19359;DHT22;9815;52.334;20.890;2023-01-08T08:40:52;3.90;99.90
19359;DHT22;9815;52.334;20.890;2023-01-08T08:43:21;3.90;99.90
19359;DHT22;9815;52.334;20.890;2023-01-08T08:45:49;3.90;99.90
19359;DHT22;9815;52.334;20.890;2023-01-08T08:48:17;3.90;99.90
19359;DHT22;9815;52.334;20.890;2023-01-08T08:50:45;3.90;99.90
19359;DHT22;9815;52.334;20.890;2023-01-08T08:53:12;4.00;99.90
19359;DHT22;9815;52.334;20.890;2023-01-08T08:55:42;4.00;99.90
19359;DHT22;9815;52.334;20.890;2023-01-08T08:58:11;3.90;99.90
19359;DHT22;9815;52.334;20.890;2023-01-08T09:00:41;3.90;99.90
19359;DHT22;9815;52.334;20.890;2023-01-08T09:03:11;4.00;99.90
19359;DHT22;9815;52.334;20.890;2023-01-08T09:05:40;4.00;99.90
19359;DHT22;9815;52.334;20.890;2023-01-08T09:08:09;4.10;99.90
19359;DHT22;9815;52.334;20.890;2023-01-08T09:10:38;4.10;99.90
19359;DHT22;9815;52.334;20.890;2023-01-08T09:13:10;4.10;99.90
19359;DHT22;9815;52.334;20.890;2023-01-08T09:15:38;4.10;99.90
19359;DHT22;9815;52.334;20.890;2023-01-08T09:18:06;4.10;99.90
19359;DHT22;9815;52.334;20.890;2023-01-08T09:20:34;4.10;99.90
19359;DHT22;9815;52.334;20.890;2023-01-08T09:23:02;4.10;99.90
19359;DHT22;9815;52.334;20.890;2023-01-08T09:25:30;4.20;99.90
19359;DHT22;9815;52.334;20.890;2023-01-08T09:27:59;4.20;99.90
19359;DHT22;9815;52.334;20.890;2023-01-08T09:30:29;4.30;99.90
19359;DHT22;9815;52.334;20.890;2023-01-08T09:32:57;4.30;99.90
19359;DHT22;9815;52.334;20.890;2023-01-08T09:35:28;4.40;99.90
19359;DHT22;9815;52.334;20.890;2023-01-08T09:37:57;4.40;99.90
19359;DHT22;9815;52.334;20.890;2023-01-08T09:40:30;4.60;99.90
19359;DHT22;9815;52.334;20.890;2023-01-08T09:43:00;4.60;99.90
19359;DHT22;9815;52.334;20.890;2023-01-08T09:45:31;4.60;99.90
19359;DHT22;9815;52.334;20.890;2023-01-08T09:48:03;4.60;99.90
19359;DHT22;9815;52.334;20.890;2023-01-08T09:50:33;4.60;99.90
19359;DHT22;9815;52.334;20.890;2023-01-08T09:53:01;4.60;99.90
19359;DHT22;9815;52.334;20.890;2023-01-08T09:55:32;4.60;99.90
19359;DHT22;9815;52.334;20.890;2023-01-08T09:58:01;4.60;99.90
19359;DHT22;9815;52.334;20.890;2023-01-08T10:00:31;4.60;99.90
19359;DHT22;9815;52.334;20.890;2023-01-08T10:03:00;4.70;99.90
19359;DHT22;9815;52.334;20.890;2023-01-08T10:05:29;4.70;99.90
19359;DHT22;9815;52.334;20.890;2023-01-08T10:07:57;4.70;99.90
19359;DHT22;9815;52.334;20.890;2023-01-08T10:10:28;4.80;99.90
19359;DHT22;9815;52.334;20.890;2023-01-08T10:12:57;4.80;99.90
19359;DHT22;9815;52.334;20.890;2023-01-08T10:15:26;4.90;99.90
19359;DHT22;9815;52.334;20.890;2023-01-08T10:18:04;4.90;99.90
19359;DHT22;9815;52.334;20.890;2023-01-08T10:20:33;5.00;99.90
19359;DHT22;9815;52.334;20.890;2023-01-08T10:23:10;5.00;99.90
19359;DHT22;9815;52.334;20.890;2023-01-08T10:25:52;5.00;99.90
19359;DHT22;9815;52.334;20.890;2023-01-08T10:28:21;5.10;99.90
19359;DHT22;9815;52.334;20.890;2023-01-08T10:30:51;5.10;99.90
19359;DHT22;9815;52.334;20.890;2023-01-08T10:33:23;5.10;99.90
19359;DHT22;9815;52.334;20.890;2023-01-08T10:35:53;5.10;99.90
19359;DHT22;9815;52.334;20.890;2023-01-08T10:38:25;5.20;99.90
19359;DHT22;9815;52.334;20.890;2023-01-08T10:40:54;5.20;99.90
19359;DHT22;9815;52.334;20.890;2023-01-08T10:43:26;5.20;99.90
19359;DHT22;9815;52.334;20.890;2023-01-08T10:45:57;5.20;99.90
19359;DHT22;9815;52.334;20.890;2023-01-08T10:48:32;5.20;99.90
19359;DHT22;9815;52.334;20.890;2023-01-08T10:51:05;5.20;99.90
19359;DHT22;9815;52.334;20.890;2023-01-08T10:53:33;5.20;99.90
19359;DHT22;9815;52.334;20.890;2023-01-08T10:56:03;5.30;99.90
19359;DHT22;9815;52.334;20.890;2023-01-08T10:58:40;5.30;99.90
19359;DHT22;9815;52.334;20.890;2023-01-08T11:01:10;5.30;99.90
19359;DHT22;9815;52.334;20.890;2023-01-08T11:03:40;5.30;99.90
19359;DHT22;9815;52.334;20.890;2023-01-08T11:06:12;5.40;99.90
19359;DHT22;9815;52.334;20.890;2023-01-08T11:08:49;5.40;99.90
19359;DHT22;9815;52.334;20.890;2023-01-08T11:11:18;5.40;99.90
19359;DHT22;9815;52.334;20.890;2023-01-08T11:13:56;5.30;99.90
19359;DHT22;9815;52.334;20.890;2023-01-08T11:16:32;5.20;99.90
19359;DHT22;9815;52.334;20.890;2023-01-08T11:19:03;5.20;99.90
19359;DHT22;9815;52.334;20.890;2023-01-08T11:21:32;5.20;99.90
19359;DHT22;9815;52.334;20.890;2023-01-08T11:24:10;5.20;99.90
19359;DHT22;9815;52.334;20.890;2023-01-08T11:26:41;5.20;99.90
19359;DHT22;9815;52.334;20.890;2023-01-08T11:29:14;5.10;99.90
19359;DHT22;9815;52.334;20.890;2023-01-08T11:31:50;5.10;99.90
19359;DHT22;9815;52.334;20.890;2023-01-08T11:34:25;5.00;99.90
19359;DHT22;9815;52.334;20.890;2023-01-08T11:36:58;5.00;99.90
19359;DHT22;9815;52.334;20.890;2023-01-08T11:39:29;5.00;99.90
19359;DHT22;9815;52.334;20.890;2023-01-08T11:42:12;4.90;99.90
19359;DHT22;9815;52.334;20.890;2023-01-08T11:44:50;4.90;99.90
19359;DHT22;9815;52.334;20.890;2023-01-08T11:47:38;4.90;99.90
19359;DHT22;9815;52.334;20.890;2023-01-08T11:50:17;4.90;99.90
19359;DHT22;9815;52.334;20.890;2023-01-08T11:53:05;4.90;99.90
19359;DHT22;9815;52.334;20.890;2023-01-08T11:55:48;4.90;99.90
19359;DHT22;9815;52.334;20.890;2023-01-08T11:58:23;4.90;99.90
19359;DHT22;9815;52.334;20.890;2023-01-08T12:01:19;4.80;99.90
19359;DHT22;9815;52.334;20.890;2023-01-08T12:04:04;4.80;99.90
19359;DHT22;9815;52.334;20.890;2023-01-08T12:06:45;4.80;99.90
19359;DHT22;9815;52.334;20.890;2023-01-08T12:09:22;4.90;99.90
19359;DHT22;9815;52.334;20.890;2023-01-08T12:11:59;4.90;99.90
19359;DHT22;9815;52.334;20.890;2023-01-08T12:14:45;4.90;99.90
19359;DHT22;9815;52.334;20.890;2023-01-08T12:17:32;4.90;99.90
19359;DHT22;9815;52.334;20.890;2023-01-08T12:20:14;4.80;99.90
19359;DHT22;9815;52.334;20.890;2023-01-08T12:22:52;4.80;99.90
19359;DHT22;9815;52.334;20.890;2023-01-08T12:25:41;4.70;99.90
19359;DHT22;9815;52.334;20.890;2023-01-08T12:31:19;4.60;99.90
19359;DHT22;9815;52.334;20.890;2023-01-08T12:33:55;4.80;99.90
19359;DHT22;9815;52.334;20.890;2023-01-08T12:36:26;4.80;99.90
19359;DHT22;9815;52.334;20.890;2023-01-08T12:39:00;4.70;99.90
19359;DHT22;9815;52.334;20.890;2023-01-08T12:41:31;4.70;99.90
19359;DHT22;9815;52.334;20.890;2023-01-08T12:44:02;4.80;99.90
19359;DHT22;9815;52.334;20.890;2023-01-08T12:46:32;4.70;99.90
19359;DHT22;9815;52.334;20.890;2023-01-08T12:49:02;4.70;99.90
19359;DHT22;9815;52.334;20.890;2023-01-08T12:51:34;4.70;99.90
19359;DHT22;9815;52.334;20.890;2023-01-08T12:54:13;4.70;99.90
19359;DHT22;9815;52.334;20.890;2023-01-08T12:56:49;4.60;99.90
19359;DHT22;9815;52.334;20.890;2023-01-08T12:59:27;4.70;99.90
19359;DHT22;9815;52.334;20.890;2023-01-08T13:02:01;4.70;99.90
19359;DHT22;9815;52.334;20.890;2023-01-08T13:04:39;4.60;99.90
19359;DHT22;9815;52.334;20.890;2023-01-08T13:07:15;4.50;99.90
19359;DHT22;9815;52.334;20.890;2023-01-08T13:09:53;4.50;99.90
19359;DHT22;9815;52.334;20.890;2023-01-08T13:12:27;4.50;99.90
19359;DHT22;9815;52.334;20.890;2023-01-08T13:14:58;4.50;99.90
19359;DHT22;9815;52.334;20.890;2023-01-08T13:17:27;4.50;99.90
19359;DHT22;9815;52.334;20.890;2023-01-08T13:19:59;4.50;99.90
19359;DHT22;9815;52.334;20.890;2023-01-08T13:22:28;4.50;99.90
19359;DHT22;9815;52.334;20.890;2023-01-08T13:25:30;4.40;99.90
19359;DHT22;9815;52.334;20.890;2023-01-08T13:27:58;4.40;99.90
19359;DHT22;9815;52.334;20.890;2023-01-08T13:30:36;4.40;99.90
19359;DHT22;9815;52.334;20.890;2023-01-08T13:33:25;4.40;99.90
19359;DHT22;9815;52.334;20.890;2023-01-08T13:36:13;4.30;99.90
19359;DHT22;9815;52.334;20.890;2023-01-08T13:38:41;4.30;99.90
19359;DHT22;9815;52.334;20.890;2023-01-08T13:41:27;4.30;99.90
19359;DHT22;9815;52.334;20.890;2023-01-08T13:43:59;4.30;99.90
19359;DHT22;9815;52.334;20.890;2023-01-08T13:46:28;4.30;99.90
19359;DHT22;9815;52.334;20.890;2023-01-08T13:49:02;4.20;99.90
19359;DHT22;9815;52.334;20.890;2023-01-08T13:51:38;4.20;99.90
19359;DHT22;9815;52.334;20.890;2023-01-08T13:54:18;4.20;99.90
19359;DHT22;9815;52.334;20.890;2023-01-08T13:56:53;4.20;99.90
19359;DHT22;9815;52.334;20.890;2023-01-08T13:59:30;4.20;99.90
19359;DHT22;9815;52.334;20.890;2023-01-08T14:02:00;4.20;99.90
19359;DHT22;9815;52.334;20.890;2023-01-08T14:04:29;4.20;99.90
19359;DHT22;9815;52.334;20.890;2023-01-08T14:07:13;4.20;99.90
19359;DHT22;9815;52.334;20.890;2023-01-08T14:09:41;4.10;99.90
19359;DHT22;9815;52.334;20.890;2023-01-08T14:12:13;4.00;99.90
19359;DHT22;9815;52.334;20.890;2023-01-08T14:14:46;4.00;99.90
19359;DHT22;9815;52.334;20.890;2023-01-08T14:17:16;4.10;99.90
19359;DHT22;9815;52.334;20.890;2023-01-08T14:19:44;4.00;99.90
19359;DHT22;9815;52.334;20.890;2023-01-08T14:22:17;4.00;99.90
19359;DHT22;9815;52.334;20.890;2023-01-08T14:24:52;4.00;99.90
19359;DHT22;9815;52.334;20.890;2023-01-08T14:27:24;4.00;99.90
19359;DHT22;9815;52.334;20.890;2023-01-08T14:29:53;4.00;99.90
19359;DHT22;9815;52.334;20.890;2023-01-08T14:32:23;4.10;99.90
19359;DHT22;9815;52.334;20.890;2023-01-08T14:34:52;4.00;99.90
19359;DHT22;9815;52.334;20.890;2023-01-08T14:37:21;4.00;99.90
19359;DHT22;9815;52.334;20.890;2023-01-08T14:39:49;4.00;99.90
19359;DHT22;9815;52.334;20.890;2023-01-08T14:42:25;3.90;99.90
19359;DHT22;9815;52.334;20.890;2023-01-08T14:45:18;3.90;99.90
19359;DHT22;9815;52.334;20.890;2023-01-08T14:47:48;3.90;99.90
19359;DHT22;9815;52.334;20.890;2023-01-08T14:50:19;3.90;99.90
19359;DHT22;9815;52.334;20.890;2023-01-08T14:52:50;3.90;99.90
19359;DHT22;9815;52.334;20.890;2023-01-08T14:55:20;3.90;99.90
19359;DHT22;9815;52.334;20.890;2023-01-08T14:57:51;3.80;99.90
19359;DHT22;9815;52.334;20.890;2023-01-08T15:00:22;3.80;99.90
19359;DHT22;9815;52.334;20.890;2023-01-08T15:02:52;3.80;99.90
19359;DHT22;9815;52.334;20.890;2023-01-08T15:05:25;3.80;99.90
19359;DHT22;9815;52.334;20.890;2023-01-08T15:07:56;3.90;99.90
19359;DHT22;9815;52.334;20.890;2023-01-08T15:10:33;3.80;99.90
19359;DHT22;9815;52.334;20.890;2023-01-08T15:13:03;3.80;99.90
19359;DHT22;9815;52.334;20.890;2023-01-08T15:15:50;3.80;99.90
19359;DHT22;9815;52.334;20.890;2023-01-08T15:18:20;3.80;99.90
19359;DHT22;9815;52.334;20.890;2023-01-08T15:20:49;3.70;99.90
19359;DHT22;9815;52.334;20.890;2023-01-08T15:23:25;3.70;99.90
19359;DHT22;9815;52.334;20.890;2023-01-08T15:25:54;3.70;99.90
19359;DHT22;9815;52.334;20.890;2023-01-08T15:28:24;3.70;99.90
19359;DHT22;9815;52.334;20.890;2023-01-08T15:30:54;3.80;99.90
19359;DHT22;9815;52.334;20.890;2023-01-08T15:33:24;3.70;99.90
19359;DHT22;9815;52.334;20.890;2023-01-08T15:35:52;3.80;99.90
19359;DHT22;9815;52.334;20.890;2023-01-08T15:38:20;3.80;99.90
19359;DHT22;9815;52.334;20.890;2023-01-08T15:40:50;3.80;99.90
19359;DHT22;9815;52.334;20.890;2023-01-08T15:43:19;3.80;99.90
19359;DHT22;9815;52.334;20.890;2023-01-08T15:45:48;3.80;99.90
19359;DHT22;9815;52.334;20.890;2023-01-08T15:48:17;3.80;99.90
19359;DHT22;9815;52.334;20.890;2023-01-08T15:50:45;3.80;99.90
19359;DHT22;9815;52.334;20.890;2023-01-08T15:53:16;3.80;99.90
19359;DHT22;9815;52.334;20.890;2023-01-08T15:55:45;3.80;99.90
19359;DHT22;9815;52.334;20.890;2023-01-08T15:58:14;3.70;99.90
19359;DHT22;9815;52.334;20.890;2023-01-08T16:00:43;3.70;99.90
19359;DHT22;9815;52.334;20.890;2023-01-08T16:03:14;3.70;99.90
19359;DHT22;9815;52.334;20.890;2023-01-08T16:05:43;3.70;99.90
19359;DHT22;9815;52.334;20.890;2023-01-08T16:08:11;3.70;99.90
19359;DHT22;9815;52.334;20.890;2023-01-08T16:10:38;3.80;99.90